createdAt,value
2018-12-11T00:00:38.611Z,100531.25
2018-12-11T00:03:06.302Z,100531.36
2018-12-11T00:05:33.898Z,100535.53
2018-12-11T00:08:01.530Z,100527.25
2018-12-11T00:10:29.086Z,100535.56
2018-12-11T00:12:56.702Z,100533.95
2018-12-11T00:15:24.334Z,100532.08
2018-12-11T00:17:51.893Z,100531.42
2018-12-11T00:20:19.470Z,100541.73
2018-12-11T00:22:47.023Z,100533.00
2018-12-11T00:25:14.889Z,100530.90
2018-12-11T00:27:42.486Z,100535.07
2018-12-11T00:30:10.401Z,100530.58
2018-12-11T00:32:38.037Z,100525.95
2018-12-11T00:35:06.180Z,100524.34
2018-12-11T00:37:33.824Z,100514.40
2018-12-11T00:40:01.364Z,100513.67
2018-12-11T00:42:28.961Z,100517.90
2018-12-11T00:44:56.553Z,100518.48
2018-12-11T00:47:24.173Z,100522.15
2018-12-11T00:49:51.753Z,100513.16
2018-12-11T00:52:19.301Z,100517.27
2018-12-11T00:54:46.969Z,100512.95
2018-12-11T00:57:14.539Z,100521.47
2018-12-11T00:59:42.227Z,100513.67
2018-12-11T01:02:09.885Z,100511.00
2018-12-11T01:04:37.496Z,100505.11
2018-12-11T01:07:05.095Z,100510.98
2018-12-11T01:09:33.025Z,100510.17
2018-12-11T01:12:00.626Z,100513.91
2018-12-11T01:14:28.195Z,100518.11
2018-12-11T01:16:55.822Z,100521.50
2018-12-11T01:19:23.369Z,100518.42
2018-12-11T01:21:50.971Z,100517.36
2018-12-11T01:24:18.555Z,100524.46
2018-12-11T01:26:46.462Z,100520.00
2018-12-11T01:29:14.063Z,100519.31
2018-12-11T01:31:41.624Z,100517.19
2018-12-11T01:34:09.236Z,100511.23
2018-12-11T01:36:36.802Z,100512.81
2018-12-11T01:39:07.580Z,100519.45
2018-12-11T01:41:35.194Z,100518.36
2018-12-11T01:44:02.867Z,100518.69
2018-12-11T01:46:30.488Z,100524.26
2018-12-11T01:48:58.118Z,100523.73
2018-12-11T01:51:25.739Z,100522.30
2018-12-11T01:53:53.303Z,100521.70
2018-12-11T01:56:20.975Z,100529.92
2018-12-11T01:58:48.583Z,100518.69
2018-12-11T02:01:16.181Z,100521.95
2018-12-11T02:03:43.723Z,100521.64
2018-12-11T02:06:11.381Z,100526.62
2018-12-11T02:08:38.953Z,100524.75
2018-12-11T02:11:06.557Z,100522.59
2018-12-11T02:13:34.414Z,100525.09
2018-12-11T02:16:01.985Z,100521.95
2018-12-11T02:18:29.542Z,100515.69
2018-12-11T02:20:57.390Z,100510.52
2018-12-11T02:23:25.033Z,100518.34
2018-12-11T02:25:52.816Z,100512.73
2018-12-11T02:28:20.697Z,100515.83
2018-12-11T02:30:48.321Z,100519.66
2018-12-11T02:33:16.020Z,100513.28
2018-12-11T02:35:43.646Z,100511.06
2018-12-11T02:38:11.915Z,100508.10
2018-12-11T02:40:39.498Z,100515.23
2018-12-11T02:43:07.124Z,100508.50
2018-12-11T02:45:34.792Z,100522.13
2018-12-11T02:48:02.355Z,100502.09
2018-12-11T02:50:29.910Z,100514.20
2018-12-11T02:52:57.641Z,100510.63
2018-12-11T02:55:25.258Z,100505.86
2018-12-11T02:57:53.177Z,100509.82
2018-12-11T03:00:20.786Z,100501.89
2018-12-11T03:02:48.368Z,100497.03
2018-12-11T03:05:15.913Z,100501.80
2018-12-11T03:07:43.533Z,100496.52
2018-12-11T03:10:11.145Z,100504.13
2018-12-11T03:12:38.741Z,100503.53
2018-12-11T03:15:06.344Z,100495.27
2018-12-11T03:17:33.976Z,100499.02
2018-12-11T03:20:01.596Z,100494.30
2018-12-11T03:22:29.205Z,100492.22
2018-12-11T03:24:56.773Z,100489.69
2018-12-11T03:27:24.438Z,100500.38
2018-12-11T03:29:52.070Z,100493.11
2018-12-11T03:32:19.729Z,100496.41
2018-12-11T03:34:48.297Z,100493.48
2018-12-11T03:37:15.881Z,100493.17
2018-12-11T03:39:43.454Z,100489.69
2018-12-11T03:42:11.185Z,100488.72
2018-12-11T03:44:38.740Z,100501.63
2018-12-11T03:47:06.299Z,100496.39
2018-12-11T03:49:33.899Z,100488.72
2018-12-11T03:52:01.483Z,100489.77
2018-12-11T03:54:29.099Z,100490.06
2018-12-11T03:56:57.287Z,100492.35
2018-12-11T03:59:25.285Z,100485.17
2018-12-11T04:01:52.901Z,100487.91
2018-12-11T04:04:20.471Z,100493.03
2018-12-11T04:06:48.117Z,100482.59
2018-12-11T04:09:15.657Z,100489.23
2018-12-11T04:11:43.260Z,100488.81
2018-12-11T04:14:10.881Z,100493.31
2018-12-11T04:16:38.473Z,100490.53
2018-12-11T04:19:06.060Z,100494.50
2018-12-11T04:21:33.651Z,100485.72
2018-12-11T04:24:01.328Z,100491.70
2018-12-11T04:26:29.049Z,100493.69
2018-12-11T04:28:57.021Z,100493.69
2018-12-11T04:31:25.091Z,100494.98
2018-12-11T04:33:52.676Z,100492.69
2018-12-11T04:36:20.230Z,100499.59
2018-12-11T04:38:47.796Z,100501.74
2018-12-11T04:41:15.358Z,100508.22
2018-12-11T04:43:43.024Z,100509.52
2018-12-11T04:46:10.716Z,100507.52
2018-12-11T04:48:38.313Z,100516.44
2018-12-11T04:51:05.910Z,100513.62
2018-12-11T04:53:33.488Z,100512.35
2018-12-11T04:56:01.190Z,100518.94
2018-12-11T04:58:29.086Z,100523.31
2018-12-11T05:00:56.668Z,100509.59
2018-12-11T05:03:24.277Z,100517.02
2018-12-11T05:05:51.857Z,100515.23
2018-12-11T05:08:19.729Z,100525.95
2018-12-11T05:10:47.410Z,100524.98
2018-12-11T05:13:14.990Z,100526.91
2018-12-11T05:15:42.679Z,100525.86
2018-12-11T05:18:10.597Z,100521.27
2018-12-11T05:20:38.213Z,100524.23
2018-12-11T05:23:05.831Z,100525.34
2018-12-11T05:25:33.450Z,100527.99
2018-12-11T05:28:01.211Z,100538.43
2018-12-11T05:30:28.797Z,100538.43
2018-12-11T05:32:56.384Z,100534.11
2018-12-11T05:35:23.990Z,100536.06
2018-12-11T05:37:51.590Z,100541.36
2018-12-11T05:40:19.198Z,100545.67
2018-12-11T05:42:46.763Z,100542.33
2018-12-11T05:45:14.597Z,100550.13
2018-12-11T05:47:42.150Z,100547.27
2018-12-11T05:50:09.729Z,100549.98
2018-12-11T05:52:37.376Z,100549.75
2018-12-11T05:55:05.798Z,100545.64
2018-12-11T05:57:33.515Z,100554.55
2018-12-11T06:00:01.489Z,100556.05
2018-12-11T06:02:30.213Z,100564.58
2018-12-11T06:04:57.842Z,100570.34
2018-12-11T06:07:25.485Z,100570.00
2018-12-11T06:09:53.099Z,100574.31
2018-12-11T06:12:20.728Z,100574.66
2018-12-11T06:14:48.283Z,100581.13
2018-12-11T06:17:16.064Z,100592.55
2018-12-11T06:19:43.713Z,100601.49
2018-12-11T06:22:11.476Z,100613.47
2018-12-11T06:24:39.104Z,100620.70
2018-12-11T06:27:06.784Z,100632.26
2018-12-11T06:29:34.667Z,100644.40
2018-12-11T06:32:02.635Z,100640.53
2018-12-11T06:34:30.205Z,100642.43
2018-12-11T06:36:57.868Z,100632.92
2018-12-11T06:39:25.496Z,100640.16
2018-12-11T06:41:53.092Z,100640.92
2018-12-11T06:44:20.681Z,100654.30
2018-12-11T06:46:48.319Z,100652.98
2018-12-11T06:49:15.910Z,100664.44
2018-12-11T06:51:43.545Z,100656.72
2018-12-11T06:54:11.253Z,100662.55
2018-12-11T06:56:38.867Z,100669.38
2018-12-11T06:59:06.463Z,100666.95
2018-12-11T07:01:34.097Z,100671.44
2018-12-11T07:04:01.749Z,100666.86
2018-12-11T07:06:29.356Z,100675.34
2018-12-11T07:08:56.963Z,100686.24
2018-12-11T07:11:24.932Z,100675.18
2018-12-11T07:13:52.549Z,100680.33
2018-12-11T07:16:20.140Z,100686.59
2018-12-11T07:18:47.735Z,100681.73
2018-12-11T07:21:15.421Z,100695.58
2018-12-11T07:23:43.056Z,100697.30
2018-12-11T07:26:10.603Z,100705.23
2018-12-11T07:28:38.276Z,100714.13
2018-12-11T07:31:05.848Z,100715.94
2018-12-11T07:33:33.457Z,100709.81
2018-12-11T07:36:01.122Z,100722.55
2018-12-11T07:38:28.742Z,100726.11
2018-12-11T07:40:56.442Z,100731.97
2018-12-11T07:43:24.142Z,100731.63
2018-12-11T07:45:51.732Z,100734.62
2018-12-11T07:48:19.397Z,100738.01
2018-12-11T07:50:47.542Z,100737.80
2018-12-11T07:53:15.606Z,100741.00
2018-12-11T07:55:43.351Z,100747.97
2018-12-11T07:58:11.054Z,100744.05
2018-12-11T08:00:38.669Z,100746.83
2018-12-11T08:03:06.342Z,100748.94
2018-12-11T08:05:33.967Z,100748.98
2018-12-11T08:08:01.769Z,100747.66
2018-12-11T08:13:09.437Z,100752.73
2018-12-11T08:15:37.043Z,100763.08
2018-12-11T08:18:04.627Z,100752.10
2018-12-11T08:20:32.337Z,100758.72
2018-12-11T08:22:59.987Z,100767.97
2018-12-11T08:25:27.576Z,100770.14
2018-12-11T08:27:55.199Z,100771.02
2018-12-11T08:30:22.885Z,100771.58
2018-12-11T08:32:50.576Z,100778.81
2018-12-11T08:35:18.467Z,100783.97
2018-12-11T08:37:46.111Z,100793.41
2018-12-11T08:40:13.723Z,100801.22
2018-12-11T08:42:41.277Z,100804.16
2018-12-11T08:45:08.933Z,100804.79
2018-12-11T08:47:36.657Z,100808.19
2018-12-11T08:50:04.986Z,100806.33
2018-12-11T08:52:32.780Z,100819.34
2018-12-11T08:55:00.499Z,100824.50
2018-12-11T08:57:28.188Z,100818.86
2018-12-11T08:59:55.792Z,100826.04
2018-12-11T09:02:23.415Z,100821.59
2018-12-11T09:04:51.078Z,100828.95
2018-12-11T09:07:18.687Z,100826.30
2018-12-11T09:09:46.271Z,100836.59
2018-12-11T09:12:13.895Z,100844.83
2018-12-11T09:14:41.487Z,100848.44
2018-12-11T09:17:10.326Z,100846.20
2018-12-11T09:19:38.573Z,100852.14
2018-12-11T09:22:06.160Z,100859.38
2018-12-11T09:24:33.899Z,100862.64
2018-12-11T09:27:01.673Z,100866.48
2018-12-11T09:29:29.246Z,100871.15
2018-12-11T09:31:56.904Z,100870.31
2018-12-11T09:34:24.503Z,100877.41
2018-12-11T09:36:52.415Z,100875.03
2018-12-11T09:39:20.020Z,100879.00
2018-12-11T09:41:47.607Z,100877.14
2018-12-11T09:44:15.227Z,100882.91
2018-12-11T09:46:42.830Z,100881.45
2018-12-11T09:49:10.411Z,100887.30
2018-12-11T09:51:38.133Z,100885.77
2018-12-11T09:54:05.878Z,100890.90
2018-12-11T09:56:33.513Z,100894.67
2018-12-11T09:59:01.146Z,100902.64
2018-12-11T10:01:28.891Z,100898.48
2018-12-11T10:03:56.564Z,100905.71
2018-12-11T10:06:24.195Z,100902.58
2018-12-11T10:08:53.812Z,100910.38
2018-12-11T10:11:21.435Z,100908.48
2018-12-11T10:13:49.015Z,100909.27
2018-12-11T10:16:16.717Z,100915.23
2018-12-11T10:18:44.320Z,100917.87
2018-12-11T10:21:11.915Z,100918.16
2018-12-11T10:23:39.960Z,100921.52
2018-12-11T10:26:09.010Z,100922.00
2018-12-11T10:28:36.639Z,100924.99
2018-12-11T10:31:04.430Z,100923.52
2018-12-11T10:33:32.259Z,100928.19
2018-12-11T10:35:59.912Z,100926.02
2018-12-11T10:38:27.505Z,100927.34
2018-12-11T10:40:55.338Z,100930.47
2018-12-11T10:43:22.985Z,100931.44
2018-12-11T10:45:50.652Z,100933.73
2018-12-11T10:48:18.379Z,100933.41
2018-12-11T10:50:45.927Z,100933.73
2018-12-11T10:53:13.537Z,100940.56
2018-12-11T10:55:41.149Z,100938.53
2018-12-11T10:58:08.911Z,100939.02
2018-12-11T11:00:42.213Z,100941.89
2018-12-11T11:03:10.591Z,100949.46
2018-12-11T11:05:38.193Z,100948.63
2018-12-11T11:08:05.849Z,100945.98
2018-12-11T11:10:33.506Z,100951.98
2018-12-11T11:13:01.203Z,100960.62
2018-12-11T11:15:28.792Z,100958.94
2018-12-11T11:17:56.380Z,100965.45
2018-12-11T11:20:24.068Z,100966.16
2018-12-11T11:22:51.620Z,100964.36
2018-12-11T11:25:19.215Z,100970.48
2018-12-11T11:27:46.810Z,100972.77
2018-12-11T11:30:14.352Z,100974.02
2018-12-11T11:32:41.930Z,100971.09
2018-12-11T11:35:09.805Z,100980.64
2018-12-11T11:37:37.439Z,100978.60
2018-12-11T11:40:05.224Z,100981.59
2018-12-11T11:42:33.995Z,100977.28
2018-12-11T11:45:01.894Z,100976.86
2018-12-11T11:47:29.470Z,100979.98
2018-12-11T11:49:57.135Z,100980.59
2018-12-11T11:52:24.720Z,100983.95
2018-12-11T11:54:52.334Z,100986.78
2018-12-11T11:57:19.935Z,100983.01
2018-12-11T11:59:47.603Z,100990.38
2018-12-11T12:02:15.143Z,100989.19
2018-12-11T12:04:42.734Z,100988.70
2018-12-11T12:07:10.319Z,100990.87
2018-12-11T12:09:37.882Z,100993.58
2018-12-11T12:12:05.480Z,100998.52
2018-12-11T12:14:33.041Z,101000.47
2018-12-11T12:17:00.962Z,100996.99
2018-12-11T12:19:28.560Z,101001.16
2018-12-11T12:21:56.232Z,100996.22
2018-12-11T12:24:23.855Z,101004.86
2018-12-11T12:26:51.445Z,100999.58
2018-12-11T12:29:19.030Z,101003.67
2018-12-11T12:31:46.640Z,101009.80
2018-12-11T12:34:14.628Z,101013.63
2018-12-11T12:36:42.259Z,101012.54
2018-12-11T12:39:09.949Z,101013.50
2018-12-11T12:41:37.568Z,101015.54
2018-12-11T12:44:05.191Z,101019.50
2018-12-11T12:46:32.743Z,101017.47
2018-12-11T12:49:00.346Z,101021.44
2018-12-11T12:51:27.926Z,101023.59
2018-12-11T12:53:55.803Z,101024.69
2018-12-11T12:56:23.435Z,101025.53
2018-12-11T12:58:51.036Z,101022.27
2018-12-11T13:01:18.896Z,101024.69
2018-12-11T13:03:47.269Z,101026.01
2018-12-11T13:06:14.914Z,101031.78
2018-12-11T13:08:42.610Z,101034.30
2018-12-11T13:11:10.272Z,101036.17
2018-12-11T13:13:38.074Z,101039.41
2018-12-11T13:16:05.706Z,101032.54
2018-12-11T13:18:33.273Z,101034.70
2018-12-11T13:21:00.933Z,101037.67
2018-12-11T13:23:28.930Z,101034.19
2018-12-11T13:25:56.557Z,101031.89
2018-12-11T13:28:24.140Z,101035.61
2018-12-11T13:30:51.752Z,101036.15
2018-12-11T13:33:19.311Z,101032.86
2018-12-11T13:35:47.343Z,101041.02
2018-12-11T13:38:14.954Z,101042.70
2018-12-11T13:40:42.784Z,101050.50
2018-12-11T13:43:10.498Z,101038.96
2018-12-11T13:45:38.160Z,101046.00
2018-12-11T13:48:05.998Z,101045.75
2018-12-11T13:50:33.842Z,101051.03
2018-12-11T13:53:01.448Z,101050.03
2018-12-11T13:55:29.068Z,101051.46
2018-12-11T13:57:56.855Z,101053.81
2018-12-11T14:00:24.501Z,101055.85
2018-12-11T14:02:52.095Z,101062.56
2018-12-11T14:05:19.926Z,101057.95
2018-12-11T14:07:47.620Z,101062.14
2018-12-11T14:10:15.438Z,101064.66
2018-12-11T14:12:43.092Z,101067.31
2018-12-11T14:15:10.851Z,101067.31
2018-12-11T14:17:38.534Z,101067.37
2018-12-11T14:20:06.278Z,101066.89
2018-12-11T14:22:33.988Z,101073.98
2018-12-11T14:25:01.828Z,101073.30
2018-12-11T14:27:29.455Z,101075.31
2018-12-11T14:29:57.050Z,101071.98
2018-12-11T14:32:24.732Z,101074.12
2018-12-11T14:34:52.363Z,101076.56
2018-12-11T14:37:19.922Z,101081.92
2018-12-11T14:39:47.522Z,101080.95
2018-12-11T14:42:15.189Z,101079.77
2018-12-11T14:44:42.833Z,101085.98
2018-12-11T14:47:10.465Z,101086.83
2018-12-11T14:49:38.068Z,101084.31
2018-12-11T14:52:05.749Z,101085.63
2018-12-11T14:54:34.319Z,101083.05
2018-12-11T14:57:01.859Z,101084.02
2018-12-11T14:59:29.791Z,101088.63
2018-12-11T15:01:57.450Z,101087.80
2018-12-11T15:04:25.153Z,101089.05
2018-12-11T15:06:52.820Z,101090.86
2018-12-11T15:09:26.202Z,101091.96
2018-12-11T15:11:53.916Z,101090.61
2018-12-11T15:14:21.570Z,101096.64
2018-12-11T15:16:49.341Z,101096.52
2018-12-11T15:19:17.063Z,101104.58
2018-12-11T15:21:44.747Z,101100.70
2018-12-11T15:24:12.336Z,101100.61
2018-12-11T15:26:39.909Z,101106.73
2018-12-11T15:29:07.499Z,101108.97
2018-12-11T15:31:35.134Z,101116.58
2018-12-11T15:34:02.888Z,101114.26
2018-12-11T15:36:30.801Z,101117.97
2018-12-11T15:38:58.394Z,101118.69
2018-12-11T15:41:25.928Z,101122.91
2018-12-11T15:43:53.568Z,101124.59
2018-12-11T15:46:21.879Z,101127.16
2018-12-11T15:48:49.598Z,101123.20
2018-12-11T15:51:17.331Z,101128.87
2018-12-11T15:53:45.007Z,101126.58
2018-12-11T15:56:12.585Z,101127.06
2018-12-11T15:58:40.215Z,101130.31
2018-12-11T16:01:07.875Z,101135.48
2018-12-11T16:03:35.565Z,101135.00
2018-12-11T16:06:03.218Z,101136.91
2018-12-11T16:08:30.884Z,101134.03
2018-12-11T16:10:58.549Z,101137.16
2018-12-11T16:13:26.169Z,101144.55
2018-12-11T16:15:53.778Z,101134.16
2018-12-11T16:18:21.389Z,101139.07
2018-12-11T16:20:49.096Z,101151.48
2018-12-11T16:23:16.787Z,101157.84
2018-12-11T16:25:44.452Z,101155.45
2018-12-11T16:28:12.103Z,101161.03
2018-12-11T16:30:39.845Z,101158.09
2018-12-11T16:33:07.420Z,101162.88
2018-12-11T16:35:35.359Z,101163.27
2018-12-11T16:38:02.942Z,101166.39
2018-12-11T16:40:30.629Z,101168.84
2018-12-11T16:42:58.271Z,101172.33
2018-12-11T16:45:25.849Z,101171.97
2018-12-11T16:47:53.492Z,101171.97
2018-12-11T16:50:21.359Z,101176.91
2018-12-11T16:52:49.037Z,101171.97
2018-12-11T16:55:16.754Z,101178.94
2018-12-11T16:57:45.025Z,101188.88
2018-12-11T17:00:14.218Z,101184.23
2018-12-11T17:02:42.019Z,101184.23
2018-12-11T17:05:09.679Z,101190.20
2018-12-11T17:07:37.333Z,101197.78
2018-12-11T17:10:05.540Z,101198.24
2018-12-11T17:12:33.352Z,101200.78
2018-12-11T17:15:02.606Z,101196.74
2018-12-11T17:17:30.239Z,101202.39
2018-12-11T17:19:57.797Z,101199.39
2018-12-11T17:22:25.741Z,101207.32
2018-12-11T17:24:53.364Z,101211.17
2018-12-11T17:27:20.965Z,101208.77
2018-12-11T17:29:48.864Z,101209.97
2018-12-11T17:32:16.576Z,101209.00
2018-12-11T17:34:44.151Z,101211.30
2018-12-11T17:37:11.790Z,101213.58
2018-12-11T17:39:39.670Z,101223.08
2018-12-11T17:42:07.639Z,101227.04
2018-12-11T17:44:35.437Z,101227.48
2018-12-11T17:47:03.087Z,101222.23
2018-12-11T17:49:30.734Z,101227.88
2018-12-11T17:51:58.854Z,101237.03
2018-12-11T17:54:26.499Z,101234.74
2018-12-11T17:56:54.300Z,101239.68
2018-12-11T17:59:22.246Z,101237.22
2018-12-11T18:01:51.236Z,101237.22
2018-12-11T18:04:20.052Z,101241.36
2018-12-11T18:06:47.765Z,101252.91
2018-12-11T18:09:16.963Z,101250.97
2018-12-11T18:11:45.898Z,101242.60
2018-12-11T18:14:16.250Z,101248.94
2018-12-11T18:16:45.807Z,101251.98
2018-12-11T18:19:15.957Z,101258.55
2018-12-11T18:21:44.322Z,101259.08
2018-12-11T18:24:13.889Z,101257.88
2018-12-11T18:26:43.862Z,101260.41
2018-12-11T18:29:12.167Z,101261.84
2018-12-11T18:31:41.713Z,101270.70
2018-12-11T18:34:11.108Z,101270.09
2018-12-11T18:36:39.884Z,101272.03
2018-12-11T18:39:09.307Z,101283.01
2018-12-11T18:41:39.783Z,101279.28
2018-12-11T18:44:12.297Z,101279.52
2018-12-11T18:46:55.015Z,101286.85
2018-12-11T18:49:31.442Z,101290.22
2018-12-11T18:52:05.092Z,101289.38
2018-12-11T18:54:36.789Z,101299.36
2018-12-11T18:57:09.814Z,101297.68
2018-12-11T19:02:26.060Z,101300.04
2018-12-11T19:04:55.583Z,101298.47
2018-12-11T19:07:23.730Z,101307.85
2018-12-11T19:09:55.518Z,101306.90
2018-12-11T19:12:25.470Z,101309.34
2018-12-11T19:14:53.986Z,101314.27
2018-12-11T19:17:22.007Z,101315.95
2018-12-11T19:19:53.342Z,101310.66
2018-12-11T19:22:21.483Z,101314.52
2018-12-11T19:24:49.968Z,101312.83
2018-12-11T19:27:17.825Z,101329.94
2018-12-11T19:29:46.238Z,101331.27
2018-12-11T19:32:13.994Z,101326.73
2018-12-11T19:34:41.637Z,101331.06
2018-12-11T19:37:09.233Z,101330.97
2018-12-11T19:39:36.905Z,101332.14
2018-12-11T19:42:04.653Z,101344.31
2018-12-11T19:44:32.400Z,101331.96
2018-12-11T19:46:59.972Z,101331.36
2018-12-11T19:49:27.581Z,101341.22
2018-12-11T19:51:55.975Z,101340.16
2018-12-11T19:54:23.891Z,101346.30
2018-12-11T19:56:51.618Z,101344.12
2018-12-11T19:59:19.213Z,101346.41
2018-12-11T20:01:48.114Z,101346.29
2018-12-11T20:04:16.351Z,101354.01
2018-12-11T20:06:44.069Z,101347.16
2018-12-11T20:09:11.764Z,101354.36
2018-12-11T20:11:39.655Z,101360.61
2018-12-11T20:14:07.712Z,101361.23
2018-12-11T20:16:35.751Z,101369.04
2018-12-11T20:19:03.965Z,101365.55
2018-12-11T20:21:32.142Z,101366.88
2018-12-11T20:24:04.940Z,101369.04
2018-12-11T20:26:29.876Z,101379.16
2018-12-11T20:28:57.971Z,101376.14
2018-12-11T20:31:25.673Z,101383.02
2018-12-11T20:33:54.148Z,101384.34
2018-12-11T20:36:21.984Z,101392.38
2018-12-11T20:38:50.397Z,101398.25
2018-12-11T20:41:18.250Z,101392.27
2018-12-11T20:43:45.972Z,101398.14
2018-12-11T20:46:14.132Z,101397.30
2018-12-11T20:48:42.601Z,101395.14
2018-12-11T20:51:10.816Z,101397.28
2018-12-11T20:53:39.162Z,101398.12
2018-12-11T20:56:06.986Z,101405.70
2018-12-11T20:58:35.107Z,101401.62
2018-12-11T21:01:02.862Z,101409.31
2018-12-11T21:03:30.588Z,101411.83
2018-12-11T21:05:58.622Z,101411.59
2018-12-11T21:08:26.248Z,101414.58
2018-12-11T21:10:54.353Z,101414.84
2018-12-11T21:13:22.043Z,101418.92
2018-12-11T21:15:49.845Z,101425.76
2018-12-11T21:18:17.629Z,101420.73
2018-12-11T21:23:19.219Z,101426.75
2018-12-11T21:25:48.455Z,101414.73
2018-12-11T21:28:16.743Z,101422.66
2018-12-11T21:30:44.548Z,101427.10
2018-12-11T21:33:12.244Z,101422.41
2018-12-11T21:35:40.700Z,101433.57
2018-12-11T21:38:08.369Z,101431.41
2018-12-11T21:40:35.993Z,101425.31
2018-12-11T21:43:03.695Z,101431.92
2018-12-11T21:45:31.323Z,101435.88
2018-12-11T21:47:59.081Z,101426.97
2018-12-11T21:50:26.856Z,101434.67
2018-12-11T21:52:54.548Z,101433.35
2018-12-11T21:55:22.843Z,101444.03
2018-12-11T21:57:50.704Z,101440.44
2018-12-11T22:00:18.635Z,101440.44
2018-12-11T22:02:46.890Z,101442.23
2018-12-11T22:05:14.806Z,101447.52
2018-12-11T22:07:42.897Z,101449.08
2018-12-11T22:10:10.591Z,101447.39
2018-12-11T22:12:38.289Z,101445.59
2018-12-11T22:15:06.843Z,101446.92
2018-12-11T22:17:34.468Z,101443.80
2018-12-11T22:20:02.154Z,101443.55
2018-12-11T22:22:29.696Z,101446.55
2018-12-11T22:24:57.330Z,101448.72
2018-12-11T22:27:24.924Z,101440.79
2018-12-11T22:29:52.573Z,101445.00
2018-12-11T22:32:20.256Z,101442.12
2018-12-11T22:34:47.858Z,101443.66
2018-12-11T22:37:15.401Z,101449.68
2018-12-11T22:39:42.976Z,101450.05
2018-12-11T22:42:10.725Z,101453.64
2018-12-11T22:44:38.461Z,101459.66
2018-12-11T22:47:06.029Z,101461.94
2018-12-11T22:49:33.764Z,101466.37
2018-12-11T22:52:01.365Z,101477.78
2018-12-11T22:54:29.192Z,101474.88
2018-12-11T22:56:56.853Z,101471.65
2018-12-11T22:59:24.530Z,101476.20
2018-12-11T23:01:52.113Z,101479.80
2018-12-11T23:04:19.761Z,101474.52
2018-12-11T23:06:47.429Z,101477.42
2018-12-11T23:09:15.063Z,101483.06
2018-12-11T23:11:42.746Z,101475.62
2018-12-11T23:14:10.349Z,101481.74
2018-12-11T23:16:38.002Z,101481.23
2018-12-11T23:19:05.630Z,101476.94
2018-12-11T23:21:33.262Z,101479.33
2018-12-11T23:24:01.294Z,101485.09
2018-12-11T23:26:29.137Z,101482.08
2018-12-11T23:28:56.689Z,101481.49
2018-12-11T23:31:24.289Z,101481.49
2018-12-11T23:33:51.886Z,101483.99
2018-12-11T23:36:19.472Z,101481.13
2018-12-11T23:38:47.135Z,101492.79
2018-12-11T23:41:14.700Z,101496.61
2018-12-11T23:43:42.366Z,101498.77
2018-12-11T23:46:10.318Z,101499.50
2018-12-11T23:48:37.953Z,101494.33
2018-12-11T23:51:05.553Z,101507.54
2018-12-11T23:53:33.565Z,101507.77
2018-12-11T23:56:01.244Z,101504.90
2018-12-11T23:58:28.863Z,101505.01
